sensor_id;sensor_type;location;lat;lon;timestamp;pressure;altitude;pressure_sealevel;temperature;humidity
49943;BME280;36011;53.362;58.948;2023-04-19T00:02:01;98096.25;;;4.38;38.24
49943;BME280;36011;53.362;58.948;2023-04-19T00:05:04;98102.25;;;4.41;38.27
49943;BME280;36011;53.362;58.948;2023-04-19T00:08:08;98103.78;;;4.52;38.24
49943;BME280;36011;53.362;58.948;2023-04-19T00:11:13;98095.00;;;4.56;38.14
49943;BME280;36011;53.362;58.948;2023-04-19T00:14:17;98093.34;;;4.53;38.36
49943;BME280;36011;53.362;58.948;2023-04-19T00:17:23;98090.78;;;4.50;38.40
49943;BME280;36011;53.362;58.948;2023-04-19T00:20:26;98096.00;;;4.50;38.43
49943;BME280;36011;53.362;58.948;2023-04-19T00:23:31;98100.34;;;4.49;38.71
49943;BME280;36011;53.362;58.948;2023-04-19T00:26:36;98095.16;;;4.49;38.56
49943;BME280;36011;53.362;58.948;2023-04-19T00:29:42;98088.16;;;4.52;38.67
49943;BME280;36011;53.362;58.948;2023-04-19T00:32:47;98096.75;;;4.57;38.84
49943;BME280;36011;53.362;58.948;2023-04-19T00:35:53;98094.91;;;4.62;38.91
49943;BME280;36011;53.362;58.948;2023-04-19T00:38:58;98096.59;;;4.63;38.66
49943;BME280;36011;53.362;58.948;2023-04-19T00:42:03;98090.50;;;4.64;38.71
49943;BME280;36011;53.362;58.948;2023-04-19T00:45:07;98094.75;;;4.68;38.84
49943;BME280;36011;53.362;58.948;2023-04-19T00:48:14;98094.72;;;4.69;38.95
49943;BME280;36011;53.362;58.948;2023-04-19T00:51:19;98098.25;;;4.67;38.93
49943;BME280;36011;53.362;58.948;2023-04-19T00:54:25;98093.94;;;4.66;39.16
49943;BME280;36011;53.362;58.948;2023-04-19T00:57:31;98103.41;;;4.70;38.98
49943;BME280;36011;53.362;58.948;2023-04-19T01:00:37;98103.41;;;4.70;39.20
49943;BME280;36011;53.362;58.948;2023-04-19T01:03:42;98096.41;;;4.72;39.32
49943;BME280;36011;53.362;58.948;2023-04-19T01:06:48;98102.44;;;4.74;39.07
49943;BME280;36011;53.362;58.948;2023-04-19T01:09:54;98095.47;;;4.76;39.21
49943;BME280;36011;53.362;58.948;2023-04-19T01:12:59;98095.53;;;4.73;39.16
49943;BME280;36011;53.362;58.948;2023-04-19T01:16:04;98088.66;;;4.69;39.52
49943;BME280;36011;53.362;58.948;2023-04-19T01:19:09;98096.53;;;4.66;39.36
49943;BME280;36011;53.362;58.948;2023-04-19T01:22:20;98098.38;;;4.61;39.52
49943;BME280;36011;53.362;58.948;2023-04-19T01:25:27;98103.47;;;4.67;39.38
49943;BME280;36011;53.362;58.948;2023-04-19T01:28:31;98105.06;;;4.72;39.42
49943;BME280;36011;53.362;58.948;2023-04-19T01:31:37;98110.13;;;4.80;39.28
49943;BME280;36011;53.362;58.948;2023-04-19T01:34:43;98112.66;;;4.85;39.62
49943;BME280;36011;53.362;58.948;2023-04-19T01:37:47;98116.13;;;4.85;39.47
49943;BME280;36011;53.362;58.948;2023-04-19T01:40:54;98111.81;;;4.84;39.45
49943;BME280;36011;53.362;58.948;2023-04-19T01:44:01;98118.84;;;4.79;39.46
49943;BME280;36011;53.362;58.948;2023-04-19T01:47:07;98112.03;;;4.73;39.58
49943;BME280;36011;53.362;58.948;2023-04-19T01:50:12;98115.56;;;4.71;39.79
49943;BME280;36011;53.362;58.948;2023-04-19T01:53:16;98119.06;;;4.70;39.47
49943;BME280;36011;53.362;58.948;2023-04-19T01:56:21;98118.94;;;4.76;39.39
49943;BME280;36011;53.362;58.948;2023-04-19T01:59:24;98121.47;;;4.79;39.66
49943;BME280;36011;53.362;58.948;2023-04-19T02:02:29;98124.94;;;4.80;39.59
49943;BME280;36011;53.362;58.948;2023-04-19T02:05:38;98123.94;;;4.85;39.73
49943;BME280;36011;53.362;58.948;2023-04-19T02:08:44;98123.94;;;4.84;39.84
49943;BME280;36011;53.362;58.948;2023-04-19T02:11:49;98115.34;;;4.82;39.87
49943;BME280;36011;53.362;58.948;2023-04-19T02:14:54;98123.72;;;4.94;39.89
49943;BME280;36011;53.362;58.948;2023-04-19T02:18:02;98115.81;;;4.99;39.74
49943;BME280;36011;53.362;58.948;2023-04-19T02:21:10;98107.16;;;4.97;39.94
49943;BME280;36011;53.362;58.948;2023-04-19T02:24:16;98116.28;;;5.16;39.84
49943;BME280;36011;53.362;58.948;2023-04-19T02:27:24;98108.28;;;5.24;39.55
49943;BME280;36011;53.362;58.948;2023-04-19T02:30:29;98111.94;;;5.53;38.94
49943;BME280;36011;53.362;58.948;2023-04-19T02:33:35;98120.09;;;5.73;38.90
49943;BME280;36011;53.362;58.948;2023-04-19T02:36:37;98112.56;;;5.97;38.70
49943;BME280;36011;53.362;58.948;2023-04-19T02:39:42;98127.50;;;6.24;37.86
49943;BME280;36011;53.362;58.948;2023-04-19T02:42:51;98137.47;;;6.43;37.87
49943;BME280;36011;53.362;58.948;2023-04-19T02:45:56;98137.47;;;6.41;38.04
49943;BME280;36011;53.362;58.948;2023-04-19T02:49:01;98141.31;;;6.29;37.92
49943;BME280;36011;53.362;58.948;2023-04-19T02:52:06;98134.03;;;6.39;37.74
49943;BME280;36011;53.362;58.948;2023-04-19T02:55:10;98133.56;;;6.56;37.62
49943;BME280;36011;53.362;58.948;2023-04-19T02:58:13;98136.50;;;6.77;37.30
49943;BME280;36011;53.362;58.948;2023-04-19T03:01:17;98141.34;;;6.89;37.33
49943;BME280;36011;53.362;58.948;2023-04-19T03:04:22;98147.06;;;7.02;36.72
49943;BME280;36011;53.362;58.948;2023-04-19T03:07:26;98147.66;;;7.11;37.04
49943;BME280;36011;53.362;58.948;2023-04-19T03:10:29;98149.75;;;7.28;36.45
49943;BME280;36011;53.362;58.948;2023-04-19T03:13:35;98156.25;;;7.43;36.46
49943;BME280;36011;53.362;58.948;2023-04-19T03:16:40;98156.78;;;7.54;36.05
49943;BME280;36011;53.362;58.948;2023-04-19T03:19:48;98165.16;;;7.65;36.11
49943;BME280;36011;53.362;58.948;2023-04-19T03:22:53;98156.97;;;7.75;36.01
49943;BME280;36011;53.362;58.948;2023-04-19T03:25:58;98161.88;;;7.85;35.86
49943;BME280;36011;53.362;58.948;2023-04-19T03:29:00;98171.66;;;8.07;35.50
49943;BME280;36011;53.362;58.948;2023-04-19T03:32:05;98165.97;;;8.19;35.45
49943;BME280;36011;53.362;58.948;2023-04-19T03:35:12;98167.41;;;8.28;35.19
49943;BME280;36011;53.362;58.948;2023-04-19T03:38:17;98165.31;;;8.39;35.02
49943;BME280;36011;53.362;58.948;2023-04-19T03:41:23;98171.03;;;8.50;34.73
49943;BME280;36011;53.362;58.948;2023-04-19T03:44:30;98163.16;;;8.50;34.60
49943;BME280;36011;53.362;58.948;2023-04-19T03:47:34;98179.72;;;8.76;34.25
49943;BME280;36011;53.362;58.948;2023-04-19T03:50:38;98187.00;;;8.91;34.17
49943;BME280;36011;53.362;58.948;2023-04-19T03:53:49;98182.69;;;8.90;33.94
49943;BME280;36011;53.362;58.948;2023-04-19T03:56:53;98180.78;;;8.94;33.89
49943;BME280;36011;53.362;58.948;2023-04-19T03:59:56;98193.84;;;9.19;33.76
49943;BME280;36011;53.362;58.948;2023-04-19T04:03:00;98183.34;;;9.19;33.43
49943;BME280;36011;53.362;58.948;2023-04-19T04:06:06;98189.06;;;9.30;33.20
49943;BME280;36011;53.362;58.948;2023-04-19T04:09:08;98179.03;;;9.18;33.46
49943;BME280;36011;53.362;58.948;2023-04-19T04:12:13;98188.56;;;9.42;32.91
49943;BME280;36011;53.362;58.948;2023-04-19T04:15:18;98184.06;;;9.46;32.69
49943;BME280;36011;53.362;58.948;2023-04-19T04:18:22;98191.16;;;9.66;32.56
49943;BME280;36011;53.362;58.948;2023-04-19T04:21:29;98188.56;;;9.86;31.98
49943;BME280;36011;53.362;58.948;2023-04-19T04:24:39;98187.03;;;10.03;31.97
49943;BME280;36011;53.362;58.948;2023-04-19T04:27:49;98196.72;;;10.23;31.80
49943;BME280;36011;53.362;58.948;2023-04-19T04:30:54;98189.41;;;10.50;31.54
49943;BME280;36011;53.362;58.948;2023-04-19T04:34:04;98195.44;;;10.72;31.05
49943;BME280;36011;53.362;58.948;2023-04-19T04:37:09;98195.69;;;10.87;31.05
49943;BME280;36011;53.362;58.948;2023-04-19T04:40:15;98189.25;;;11.13;30.58
49943;BME280;36011;53.362;58.948;2023-04-19T04:43:22;98192.38;;;11.40;30.17
49943;BME280;36011;53.362;58.948;2023-04-19T04:46:27;98195.03;;;11.76;29.74
49943;BME280;36011;53.362;58.948;2023-04-19T04:49:52;98187.75;;;12.00;29.29
49943;BME280;36011;53.362;58.948;2023-04-19T04:53:25;98188.66;;;12.34;29.15
49943;BME280;36011;53.362;58.948;2023-04-19T04:57:25;98187.25;;;12.62;28.56
49943;BME280;36011;53.362;58.948;2023-04-19T05:00:31;98139.88;;;12.58;28.25
49943;BME280;36011;53.362;58.948;2023-04-19T05:03:41;98190.66;;;13.30;27.54
49943;BME280;36011;53.362;58.948;2023-04-19T05:07:10;98192.69;;;13.88;26.78
49943;BME280;36011;53.362;58.948;2023-04-19T05:10:19;98191.81;;;14.34;26.30
49943;BME280;36011;53.362;58.948;2023-04-19T05:13:27;98190.31;;;14.74;25.57
49943;BME280;36011;53.362;58.948;2023-04-19T05:16:34;98195.81;;;15.29;24.80
49943;BME280;36011;53.362;58.948;2023-04-19T05:19:40;98199.09;;;15.88;24.21
49943;BME280;36011;53.362;58.948;2023-04-19T05:22:44;98189.34;;;16.94;23.00
49943;BME280;36011;53.362;58.948;2023-04-19T05:25:49;98194.47;;;17.96;22.00
49943;BME280;36011;53.362;58.948;2023-04-19T05:28:53;98187.16;;;19.15;21.15
49943;BME280;36011;53.362;58.948;2023-04-19T05:31:59;98196.25;;;20.45;19.69
49943;BME280;36011;53.362;58.948;2023-04-19T05:35:04;98193.63;;;21.98;18.15
49943;BME280;36011;53.362;58.948;2023-04-19T05:38:09;98196.03;;;23.36;16.68
49943;BME280;36011;53.362;58.948;2023-04-19T05:41:14;98192.66;;;23.89;16.52
49943;BME280;36011;53.362;58.948;2023-04-19T05:44:17;98183.47;;;24.09;15.96
49943;BME280;36011;53.362;58.948;2023-04-19T05:47:21;98192.06;;;25.45;15.44
49943;BME280;36011;53.362;58.948;2023-04-19T05:50:26;98194.81;;;28.21;13.50
49943;BME280;36011;53.362;58.948;2023-04-19T05:53:28;98193.63;;;31.61;13.25
49943;BME280;36011;53.362;58.948;2023-04-19T05:56:33;98196.50;;;32.88;10.91
49943;BME280;36011;53.362;58.948;2023-04-19T05:59:38;98197.91;;;34.16;9.87
49943;BME280;36011;53.362;58.948;2023-04-19T06:02:43;98201.72;;;34.78;9.54
49943;BME280;36011;53.362;58.948;2023-04-19T06:05:47;98186.56;;;36.06;8.54
49943;BME280;36011;53.362;58.948;2023-04-19T06:08:55;98189.47;;;37.42;7.75
49943;BME280;36011;53.362;58.948;2023-04-19T06:12:55;98167.66;;;39.24;7.48
49943;BME280;36011;53.362;58.948;2023-04-19T06:15:52;98179.38;;;40.20;6.64
49943;BME280;36011;53.362;58.948;2023-04-19T06:19:20;98180.91;;;40.92;6.04
49943;BME280;36011;53.362;58.948;2023-04-19T06:22:25;98173.97;;;40.57;6.02
49943;BME280;36011;53.362;58.948;2023-04-19T06:25:28;98169.75;;;41.09;5.66
49943;BME280;36011;53.362;58.948;2023-04-19T06:28:32;98173.09;;;42.21;5.31
49943;BME280;36011;53.362;58.948;2023-04-19T06:31:36;98172.56;;;43.52;4.85
49943;BME280;36011;53.362;58.948;2023-04-19T06:34:40;98166.13;;;44.27;4.56
49943;BME280;36011;53.362;58.948;2023-04-19T06:37:45;98162.53;;;44.71;4.25
49943;BME280;36011;53.362;58.948;2023-04-19T06:40:51;98170.44;;;44.53;3.97
49943;BME280;36011;53.362;58.948;2023-04-19T06:43:59;98164.84;;;44.93;4.10
49943;BME280;36011;53.362;58.948;2023-04-19T06:47:04;98165.94;;;45.26;3.85
49943;BME280;36011;53.362;58.948;2023-04-19T06:50:07;98164.00;;;45.75;3.93
49943;BME280;36011;53.362;58.948;2023-04-19T06:53:12;98167.34;;;46.39;3.78
49943;BME280;36011;53.362;58.948;2023-04-19T06:56:17;98164.00;;;46.74;3.39
49943;BME280;36011;53.362;58.948;2023-04-19T06:59:21;98160.63;;;46.77;3.23
49943;BME280;36011;53.362;58.948;2023-04-19T07:02:25;98149.72;;;46.95;3.58
49943;BME280;36011;53.362;58.948;2023-04-19T07:05:30;98160.16;;;47.03;3.12
49943;BME280;36011;53.362;58.948;2023-04-19T07:08:34;98157.00;;;47.10;3.27
49943;BME280;36011;53.362;58.948;2023-04-19T07:11:38;98157.44;;;47.17;3.00
49943;BME280;36011;53.362;58.948;2023-04-19T07:14:41;98144.22;;;46.19;3.17
49943;BME280;36011;53.362;58.948;2023-04-19T07:17:46;98149.13;;;46.46;3.26
49943;BME280;36011;53.362;58.948;2023-04-19T07:20:50;98145.34;;;46.56;3.21
49943;BME280;36011;53.362;58.948;2023-04-19T07:23:54;98143.50;;;47.31;3.31
49943;BME280;36011;53.362;58.948;2023-04-19T07:26:57;98139.72;;;47.82;2.93
49943;BME280;36011;53.362;58.948;2023-04-19T07:30:04;98140.91;;;47.76;2.79
49943;BME280;36011;53.362;58.948;2023-04-19T07:33:09;98137.59;;;47.05;3.36
49943;BME280;36011;53.362;58.948;2023-04-19T07:36:13;98129.38;;;46.62;3.39
49943;BME280;36011;53.362;58.948;2023-04-19T07:39:17;98134.28;;;47.16;3.29
49943;BME280;36011;53.362;58.948;2023-04-19T07:42:23;98129.16;;;47.23;2.98
49943;BME280;36011;53.362;58.948;2023-04-19T07:45:28;98120.66;;;45.50;3.38
49943;BME280;36011;53.362;58.948;2023-04-19T07:48:33;98121.97;;;42.70;4.24
49943;BME280;36011;53.362;58.948;2023-04-19T07:51:37;98101.03;;;41.65;4.57
49943;BME280;36011;53.362;58.948;2023-04-19T07:54:41;98101.53;;;40.67;5.08
49943;BME280;36011;53.362;58.948;2023-04-19T07:57:46;98109.50;;;42.72;4.57
49943;BME280;36011;53.362;58.948;2023-04-19T08:00:51;98111.41;;;44.72;3.68
49943;BME280;36011;53.362;58.948;2023-04-19T08:03:56;98107.63;;;45.69;3.27
49943;BME280;36011;53.362;58.948;2023-04-19T08:07:04;98110.53;;;46.40;2.99
49943;BME280;36011;53.362;58.948;2023-04-19T08:10:08;98105.56;;;47.02;2.79
49943;BME280;36011;53.362;58.948;2023-04-19T08:13:16;98101.59;;;47.08;2.98
49943;BME280;36011;53.362;58.948;2023-04-19T08:16:22;98099.09;;;45.12;3.56
49943;BME280;36011;53.362;58.948;2023-04-19T08:19:27;98093.88;;;45.06;3.49
49943;BME280;36011;53.362;58.948;2023-04-19T08:22:32;98087.56;;;45.53;3.32
49943;BME280;36011;53.362;58.948;2023-04-19T08:25:37;98094.81;;;46.49;3.05
49943;BME280;36011;53.362;58.948;2023-04-19T08:28:43;98087.03;;;47.80;3.05
49943;BME280;36011;53.362;58.948;2023-04-19T08:31:47;98091.38;;;46.38;3.02
49943;BME280;36011;53.362;58.948;2023-04-19T08:34:52;98086.94;;;46.18;3.12
49943;BME280;36011;53.362;58.948;2023-04-19T08:37:56;98077.13;;;46.40;3.07
49943;BME280;36011;53.362;58.948;2023-04-19T08:41:01;98085.41;;;45.21;3.52
49943;BME280;36011;53.362;58.948;2023-04-19T08:44:05;98078.16;;;44.67;3.43
49943;BME280;36011;53.362;58.948;2023-04-19T08:47:11;98074.84;;;45.66;3.26
49943;BME280;36011;53.362;58.948;2023-04-19T08:50:16;98077.47;;;46.85;2.72
49943;BME280;36011;53.362;58.948;2023-04-19T08:53:24;98080.19;;;44.90;3.48
49943;BME280;36011;53.362;58.948;2023-04-19T08:56:32;98071.19;;;41.72;4.41
49943;BME280;36011;53.362;58.948;2023-04-19T08:59:35;98050.50;;;37.13;5.83
49943;BME280;36011;53.362;58.948;2023-04-19T09:02:46;98049.19;;;36.56;6.54
49943;BME280;36011;53.362;58.948;2023-04-19T09:05:51;98045.50;;;37.10;5.88
49943;BME280;36011;53.362;58.948;2023-04-19T09:09:18;98051.22;;;37.08;6.33
49943;BME280;36011;53.362;58.948;2023-04-19T09:12:22;98054.63;;;38.08;5.98
49943;BME280;36011;53.362;58.948;2023-04-19T09:15:35;98050.66;;;39.44;5.47
49943;BME280;36011;53.362;58.948;2023-04-19T09:18:54;98037.84;;;35.57;7.00
49943;BME280;36011;53.362;58.948;2023-04-19T09:22:14;98031.97;;;32.16;8.67
49943;BME280;36011;53.362;58.948;2023-04-19T09:25:27;98028.47;;;29.36;10.02
49943;BME280;36011;53.362;58.948;2023-04-19T09:28:31;98030.97;;;27.42;10.96
49943;BME280;36011;53.362;58.948;2023-04-19T09:31:39;98024.56;;;25.74;12.14
49943;BME280;36011;53.362;58.948;2023-04-19T09:34:58;98025.88;;;24.16;12.97
49943;BME280;36011;53.362;58.948;2023-04-19T09:38:05;98016.88;;;22.63;14.25
49943;BME280;36011;53.362;58.948;2023-04-19T09:41:52;98026.31;;;22.01;14.35
49943;BME280;36011;53.362;58.948;2023-04-19T09:45:01;98026.66;;;21.68;16.08
49943;BME280;36011;53.362;58.948;2023-04-19T09:48:08;98021.44;;;20.36;17.52
49943;BME280;36011;53.362;58.948;2023-04-19T09:51:10;98023.41;;;19.71;18.67
49943;BME280;36011;53.362;58.948;2023-04-19T09:54:20;98029.06;;;19.78;18.69
49943;BME280;36011;53.362;58.948;2023-04-19T09:57:31;98029.06;;;20.61;18.05
49943;BME280;36011;53.362;58.948;2023-04-19T10:00:39;98023.63;;;21.33;17.65
49943;BME280;36011;53.362;58.948;2023-04-19T10:03:43;98023.72;;;22.48;16.56
49943;BME280;36011;53.362;58.948;2023-04-19T10:06:48;98020.41;;;22.91;16.58
49943;BME280;36011;53.362;58.948;2023-04-19T10:09:55;98016.06;;;22.53;16.59
49943;BME280;36011;53.362;58.948;2023-04-19T10:13:04;98021.50;;;22.04;17.05
49943;BME280;36011;53.362;58.948;2023-04-19T10:16:16;98019.56;;;21.67;17.43
49943;BME280;36011;53.362;58.948;2023-04-19T10:19:23;98016.16;;;21.26;17.83
49943;BME280;36011;53.362;58.948;2023-04-19T10:22:32;98019.47;;;20.99;18.07
49943;BME280;36011;53.362;58.948;2023-04-19T10:25:45;98024.94;;;20.57;18.45
49943;BME280;36011;53.362;58.948;2023-04-19T10:28:55;98021.72;;;19.91;19.09
49943;BME280;36011;53.362;58.948;2023-04-19T10:32:12;98019.78;;;19.28;19.66
49943;BME280;36011;53.362;58.948;2023-04-19T10:35:20;98014.53;;;18.72;20.34
49943;BME280;36011;53.362;58.948;2023-04-19T10:42:00;98018.56;;;17.86;21.63
49943;BME280;36011;53.362;58.948;2023-04-19T10:45:30;98029.81;;;17.90;21.75
49943;BME280;36011;53.362;58.948;2023-04-19T10:48:37;98011.09;;;17.67;21.64
49943;BME280;36011;53.362;58.948;2023-04-19T10:51:50;98012.91;;;17.67;22.02
49943;BME280;36011;53.362;58.948;2023-04-19T10:55:02;98011.34;;;17.40;22.08
49943;BME280;36011;53.362;58.948;2023-04-19T10:58:10;98021.31;;;17.49;21.98
49943;BME280;36011;53.362;58.948;2023-04-19T11:01:43;98013.72;;;17.32;22.10
49943;BME280;36011;53.362;58.948;2023-04-19T11:07:52;98009.75;;;17.62;21.72
49943;BME280;36011;53.362;58.948;2023-04-19T11:10:58;98020.13;;;17.30;22.28
49943;BME280;36011;53.362;58.948;2023-04-19T11:14:08;98010.69;;;16.89;22.67
49943;BME280;36011;53.362;58.948;2023-04-19T11:17:20;98018.59;;;16.90;22.69
49943;BME280;36011;53.362;58.948;2023-04-19T11:20:28;98010.69;;;16.89;22.39
49943;BME280;36011;53.362;58.948;2023-04-19T11:23:33;98014.44;;;16.86;22.45
49943;BME280;36011;53.362;58.948;2023-04-19T11:26:39;98010.53;;;16.79;22.05
49943;BME280;36011;53.362;58.948;2023-04-19T11:29:47;98024.06;;;16.50;22.38
49943;BME280;36011;53.362;58.948;2023-04-19T11:32:55;98023.09;;;16.51;22.26
49943;BME280;36011;53.362;58.948;2023-04-19T11:35:57;98011.19;;;16.57;22.18
49943;BME280;36011;53.362;58.948;2023-04-19T11:39:01;98007.41;;;16.72;22.14
49943;BME280;36011;53.362;58.948;2023-04-19T11:42:16;98009.19;;;16.97;22.37
49943;BME280;36011;53.362;58.948;2023-04-19T11:45:26;97989.81;;;16.95;22.27
49943;BME280;36011;53.362;58.948;2023-04-19T11:48:35;97995.50;;;17.15;22.49
49943;BME280;36011;53.362;58.948;2023-04-19T11:51:42;98005.72;;;17.32;22.77
49943;BME280;36011;53.362;58.948;2023-04-19T11:54:43;98002.88;;;17.46;22.15
49943;BME280;36011;53.362;58.948;2023-04-19T11:57:51;97991.22;;;17.25;22.47
49943;BME280;36011;53.362;58.948;2023-04-19T12:00:56;97993.16;;;17.58;22.37
49943;BME280;36011;53.362;58.948;2023-04-19T12:04:03;97991.97;;;18.31;21.74
49943;BME280;36011;53.362;58.948;2023-04-19T12:07:05;97989.75;;;19.04;20.87
49943;BME280;36011;53.362;58.948;2023-04-19T12:10:10;98000.28;;;19.49;20.40
49943;BME280;36011;53.362;58.948;2023-04-19T12:13:20;97993.81;;;19.63;19.93
49943;BME280;36011;53.362;58.948;2023-04-19T12:16:27;97992.25;;;19.28;20.49
49943;BME280;36011;53.362;58.948;2023-04-19T12:19:45;97983.66;;;19.13;20.71
49943;BME280;36011;53.362;58.948;2023-04-19T12:22:49;97989.25;;;19.10;20.82
49943;BME280;36011;53.362;58.948;2023-04-19T12:25:56;97984.44;;;18.93;21.04
49943;BME280;36011;53.362;58.948;2023-04-19T12:29:04;97981.06;;;18.68;21.37
49943;BME280;36011;53.362;58.948;2023-04-19T12:32:09;97982.91;;;18.23;21.92
49943;BME280;36011;53.362;58.948;2023-04-19T12:35:13;97982.97;;;17.87;22.28
49943;BME280;36011;53.362;58.948;2023-04-19T12:38:18;97988.69;;;17.59;22.72
49943;BME280;36011;53.362;58.948;2023-04-19T12:41:25;97988.09;;;17.07;23.43
49943;BME280;36011;53.362;58.948;2023-04-19T12:44:29;97990.09;;;16.67;23.83
49943;BME280;36011;53.362;58.948;2023-04-19T12:47:36;97986.06;;;16.61;24.10
49943;BME280;36011;53.362;58.948;2023-04-19T12:50:40;97982.09;;;16.30;24.40
49943;BME280;36011;53.362;58.948;2023-04-19T12:53:48;97985.06;;;16.12;24.75
49943;BME280;36011;53.362;58.948;2023-04-19T12:56:52;97979.69;;;16.14;24.48
49943;BME280;36011;53.362;58.948;2023-04-19T12:59:58;97976.81;;;16.17;24.54
49943;BME280;36011;53.362;58.948;2023-04-19T13:03:05;97980.72;;;16.11;24.60
49943;BME280;36011;53.362;58.948;2023-04-19T13:06:09;97981.47;;;15.88;25.00
49943;BME280;36011;53.362;58.948;2023-04-19T13:09:14;97984.06;;;15.62;25.31
49943;BME280;36011;53.362;58.948;2023-04-19T13:12:16;97975.97;;;15.51;25.54
49943;BME280;36011;53.362;58.948;2023-04-19T13:15:22;97983.69;;;15.41;25.72
49943;BME280;36011;53.362;58.948;2023-04-19T13:18:28;97984.06;;;15.22;25.98
49943;BME280;36011;53.362;58.948;2023-04-19T13:21:37;97976.28;;;15.07;26.31
49943;BME280;36011;53.362;58.948;2023-04-19T13:24:44;97964.19;;;14.75;26.50
49943;BME280;36011;53.362;58.948;2023-04-19T13:27:46;97970.97;;;14.79;26.53
49943;BME280;36011;53.362;58.948;2023-04-19T13:30:52;97970.56;;;14.86;26.46
49943;BME280;36011;53.362;58.948;2023-04-19T13:33:54;97972.09;;;14.90;26.48
49943;BME280;36011;53.362;58.948;2023-04-19T13:37:00;97970.84;;;14.95;26.57
49943;BME280;36011;53.362;58.948;2023-04-19T13:40:02;97970.38;;;14.89;26.46
49943;BME280;36011;53.362;58.948;2023-04-19T13:43:08;97973.72;;;14.78;26.58
49943;BME280;36011;53.362;58.948;2023-04-19T13:46:22;97964.56;;;14.69;26.86
49943;BME280;36011;53.362;58.948;2023-04-19T13:49:26;97963.00;;;14.52;27.06
49943;BME280;36011;53.362;58.948;2023-04-19T13:52:30;97963.28;;;14.33;27.68
49943;BME280;36011;53.362;58.948;2023-04-19T13:55:36;97967.16;;;14.13;28.61
49943;BME280;36011;53.362;58.948;2023-04-19T14:02:46;97951.72;;;13.63;29.27
49943;BME280;36011;53.362;58.948;2023-04-19T14:05:52;97956.75;;;13.21;29.84
49943;BME280;36011;53.362;58.948;2023-04-19T14:09:04;97962.28;;;13.02;30.13
49943;BME280;36011;53.362;58.948;2023-04-19T14:12:07;97975.66;;;12.99;29.55
49943;BME280;36011;53.362;58.948;2023-04-19T14:15:21;97970.28;;;13.01;29.77
49943;BME280;36011;53.362;58.948;2023-04-19T14:18:26;97966.44;;;13.07;29.75
49943;BME280;36011;53.362;58.948;2023-04-19T14:21:35;97957.97;;;13.16;29.71
49943;BME280;36011;53.362;58.948;2023-04-19T14:24:48;97967.50;;;13.18;29.69
49943;BME280;36011;53.362;58.948;2023-04-19T14:27:52;97964.28;;;13.13;29.57
49943;BME280;36011;53.362;58.948;2023-04-19T14:30:56;97967.47;;;13.04;29.85
49943;BME280;36011;53.362;58.948;2023-04-19T14:34:00;97971.31;;;12.98;30.02
49943;BME280;36011;53.362;58.948;2023-04-19T14:37:04;97962.03;;;12.91;30.01
49943;BME280;36011;53.362;58.948;2023-04-19T14:40:11;97971.84;;;12.89;30.30
49943;BME280;36011;53.362;58.948;2023-04-19T14:43:17;97971.25;;;12.84;29.63
49943;BME280;36011;53.362;58.948;2023-04-19T14:46:22;97960.34;;;12.74;30.39
49943;BME280;36011;53.362;58.948;2023-04-19T14:49:27;97960.44;;;12.73;30.51
49943;BME280;36011;53.362;58.948;2023-04-19T14:52:32;97974.16;;;12.79;30.70
49943;BME280;36011;53.362;58.948;2023-04-19T14:55:37;97975.00;;;12.80;31.11
49943;BME280;36011;53.362;58.948;2023-04-19T14:58:41;97980.28;;;12.80;31.28
49943;BME280;36011;53.362;58.948;2023-04-19T15:01:45;97977.66;;;12.80;31.35
49943;BME280;36011;53.362;58.948;2023-04-19T15:04:50;97974.41;;;12.75;32.55
49943;BME280;36011;53.362;58.948;2023-04-19T15:07:54;97988.03;;;12.51;33.61
49943;BME280;36011;53.362;58.948;2023-04-19T15:10:59;97994.75;;;12.41;35.22
49943;BME280;36011;53.362;58.948;2023-04-19T15:14:04;97996.66;;;12.06;36.50
49943;BME280;36011;53.362;58.948;2023-04-19T15:17:09;97994.09;;;11.69;37.82
49943;BME280;36011;53.362;58.948;2023-04-19T15:20:13;97991.38;;;11.54;38.11
49943;BME280;36011;53.362;58.948;2023-04-19T15:23:22;98001.25;;;11.33;38.32
49943;BME280;36011;53.362;58.948;2023-04-19T15:26:27;98000.53;;;11.29;38.25
49943;BME280;36011;53.362;58.948;2023-04-19T15:29:33;98008.91;;;11.37;38.23
49943;BME280;36011;53.362;58.948;2023-04-19T15:32:38;98008.84;;;11.39;38.38
49943;BME280;36011;53.362;58.948;2023-04-19T15:35:43;98015.03;;;11.38;38.74
49943;BME280;36011;53.362;58.948;2023-04-19T15:38:46;98014.94;;;11.22;39.08
49943;BME280;36011;53.362;58.948;2023-04-19T15:41:50;98009.34;;;11.11;39.50
49943;BME280;36011;53.362;58.948;2023-04-19T15:44:54;98012.03;;;11.09;40.08
49943;BME280;36011;53.362;58.948;2023-04-19T15:47:57;98010.84;;;10.97;40.19
49943;BME280;36011;53.362;58.948;2023-04-19T15:51:00;98004.75;;;10.97;40.25
49943;BME280;36011;53.362;58.948;2023-04-19T15:54:05;97994.38;;;10.94;41.06
49943;BME280;36011;53.362;58.948;2023-04-19T15:57:10;97992.47;;;10.78;42.28
49943;BME280;36011;53.362;58.948;2023-04-19T16:00:13;97993.97;;;10.65;43.46
49943;BME280;36011;53.362;58.948;2023-04-19T16:03:19;97994.69;;;10.50;43.28
49943;BME280;36011;53.362;58.948;2023-04-19T16:06:26;97994.47;;;10.36;43.83
49943;BME280;36011;53.362;58.948;2023-04-19T16:09:32;97992.22;;;10.26;44.24
49943;BME280;36011;53.362;58.948;2023-04-19T16:12:36;97988.38;;;10.15;44.46
49943;BME280;36011;53.362;58.948;2023-04-19T16:15:45;97989.81;;;10.03;45.17
49943;BME280;36011;53.362;58.948;2023-04-19T16:18:51;97984.16;;;9.92;45.53
49943;BME280;36011;53.362;58.948;2023-04-19T16:22:23;97985.63;;;9.78;45.79
49943;BME280;36011;53.362;58.948;2023-04-19T16:25:29;97978.94;;;9.71;46.15
49943;BME280;36011;53.362;58.948;2023-04-19T16:28:34;97984.94;;;9.54;46.49
49943;BME280;36011;53.362;58.948;2023-04-19T16:31:39;97981.81;;;9.44;46.66
49943;BME280;36011;53.362;58.948;2023-04-19T16:34:44;97984.84;;;9.35;46.86